Long Point, Illinois
Current Conditions -  °F | °C
As of 10:15 PM on Sunday 25 Jan 2015 (Local Time) from KPNT Reporting Station
Overcast Overcast  
Wind Chill: 17°   Ceiling: 2300
Heat Index: 28°   Visibility: 10mi
Dew Point: 23°   Wind: 13mph
Humidity: 83%   Direction: 350°N
Pressure: 29.99"   Gusts: NA
Location:  41°N, 88.89°W
Report Text: KPNT 260415Z AUTO 35011KT 10SM OVC023 M02/M05 A2999 RMK AO2 T10231049
Loading
Personal Weather Stations






























Interactive Weather Map New forecast layout! Learn more

10-Day Weather Forecast

Advertisements
Track Severe Weather on mobile